sensor_id;sensor_type;location;lat;lon;timestamp;temperature;humidity
25923;DHT22;13725;51.170;4.442;2022-12-18T00:00:43;-2.90;99.90
25923;DHT22;13725;51.170;4.442;2022-12-18T00:03:09;-2.90;99.90
25923;DHT22;13725;51.170;4.442;2022-12-18T00:05:35;-2.90;99.90
25923;DHT22;13725;51.170;4.442;2022-12-18T00:08:01;-2.90;99.90
25923;DHT22;13725;51.170;4.442;2022-12-18T00:10:28;-3.00;99.90
25923;DHT22;13725;51.170;4.442;2022-12-18T00:12:54;-3.00;99.90
25923;DHT22;13725;51.170;4.442;2022-12-18T00:15:20;-3.00;99.90
25923;DHT22;13725;51.170;4.442;2022-12-18T00:17:45;-3.00;99.90
25923;DHT22;13725;51.170;4.442;2022-12-18T00:20:11;-3.00;99.90
25923;DHT22;13725;51.170;4.442;2022-12-18T00:22:37;-3.00;99.90
25923;DHT22;13725;51.170;4.442;2022-12-18T00:25:04;-3.00;99.90
25923;DHT22;13725;51.170;4.442;2022-12-18T00:27:29;-3.10;99.90
25923;DHT22;13725;51.170;4.442;2022-12-18T00:29:55;-3.00;99.90
25923;DHT22;13725;51.170;4.442;2022-12-18T00:32:21;-3.10;99.90
25923;DHT22;13725;51.170;4.442;2022-12-18T00:34:47;-3.10;99.90
25923;DHT22;13725;51.170;4.442;2022-12-18T00:37:14;-3.10;99.90
25923;DHT22;13725;51.170;4.442;2022-12-18T00:39:40;-3.20;99.90
25923;DHT22;13725;51.170;4.442;2022-12-18T00:42:07;-3.20;99.90
25923;DHT22;13725;51.170;4.442;2022-12-18T00:44:52;-3.30;99.90
25923;DHT22;13725;51.170;4.442;2022-12-18T00:47:17;-3.30;99.90
25923;DHT22;13725;51.170;4.442;2022-12-18T00:49:43;-3.20;99.90
25923;DHT22;13725;51.170;4.442;2022-12-18T00:52:09;-3.30;99.90
25923;DHT22;13725;51.170;4.442;2022-12-18T00:54:35;-3.20;99.90
25923;DHT22;13725;51.170;4.442;2022-12-18T00:57:01;-3.20;99.90
25923;DHT22;13725;51.170;4.442;2022-12-18T00:59:26;-3.10;99.90
25923;DHT22;13725;51.170;4.442;2022-12-18T01:01:52;-3.20;99.90
25923;DHT22;13725;51.170;4.442;2022-12-18T01:04:19;-3.10;99.90
25923;DHT22;13725;51.170;4.442;2022-12-18T01:06:45;-3.10;99.90
25923;DHT22;13725;51.170;4.442;2022-12-18T01:09:11;-3.10;99.90
25923;DHT22;13725;51.170;4.442;2022-12-18T01:11:36;-3.20;99.90
25923;DHT22;13725;51.170;4.442;2022-12-18T01:14:03;-3.30;99.90
25923;DHT22;13725;51.170;4.442;2022-12-18T01:16:29;-3.30;99.90
25923;DHT22;13725;51.170;4.442;2022-12-18T01:18:55;-3.20;99.90
25923;DHT22;13725;51.170;4.442;2022-12-18T01:21:22;-3.20;99.90
25923;DHT22;13725;51.170;4.442;2022-12-18T01:23:53;-3.20;99.90
25923;DHT22;13725;51.170;4.442;2022-12-18T01:26:19;-3.20;99.90
25923;DHT22;13725;51.170;4.442;2022-12-18T01:28:45;-3.20;99.90
25923;DHT22;13725;51.170;4.442;2022-12-18T01:33:38;-3.30;99.90
25923;DHT22;13725;51.170;4.442;2022-12-18T01:36:05;-3.30;99.90
25923;DHT22;13725;51.170;4.442;2022-12-18T01:38:31;-3.30;99.90
25923;DHT22;13725;51.170;4.442;2022-12-18T01:40:59;-3.30;99.90
25923;DHT22;13725;51.170;4.442;2022-12-18T01:43:44;-3.30;99.90
25923;DHT22;13725;51.170;4.442;2022-12-18T01:46:10;-3.30;99.90
25923;DHT22;13725;51.170;4.442;2022-12-18T01:48:39;-3.40;99.90
25923;DHT22;13725;51.170;4.442;2022-12-18T01:51:08;-3.40;99.90
25923;DHT22;13725;51.170;4.442;2022-12-18T01:53:36;-3.40;99.90
25923;DHT22;13725;51.170;4.442;2022-12-18T01:56:02;-3.50;99.90
25923;DHT22;13725;51.170;4.442;2022-12-18T02:01:06;-3.30;99.90
25923;DHT22;13725;51.170;4.442;2022-12-18T02:03:32;-3.40;99.90
25923;DHT22;13725;51.170;4.442;2022-12-18T02:06:12;-3.50;99.90
25923;DHT22;13725;51.170;4.442;2022-12-18T02:08:41;-3.60;99.90
25923;DHT22;13725;51.170;4.442;2022-12-18T02:27:09;-3.70;99.90
25923;DHT22;13725;51.170;4.442;2022-12-18T02:29:46;-3.60;99.90
25923;DHT22;13725;51.170;4.442;2022-12-18T02:32:19;-3.70;99.90
25923;DHT22;13725;51.170;4.442;2022-12-18T02:34:49;-3.70;99.90
25923;DHT22;13725;51.170;4.442;2022-12-18T02:37:18;-3.60;99.90
25923;DHT22;13725;51.170;4.442;2022-12-18T02:39:48;-3.60;99.90
25923;DHT22;13725;51.170;4.442;2022-12-18T02:42:16;-3.60;99.90
25923;DHT22;13725;51.170;4.442;2022-12-18T02:44:48;-3.60;99.90
25923;DHT22;13725;51.170;4.442;2022-12-18T02:47:20;-3.50;99.90
25923;DHT22;13725;51.170;4.442;2022-12-18T02:49:57;-3.50;99.90
25923;DHT22;13725;51.170;4.442;2022-12-18T02:52:41;-3.50;99.90
25923;DHT22;13725;51.170;4.442;2022-12-18T02:55:32;-3.60;99.90
25923;DHT22;13725;51.170;4.442;2022-12-18T02:59:25;-3.60;99.90
25923;DHT22;13725;51.170;4.442;2022-12-18T03:01:48;-3.60;99.90
25923;DHT22;13725;51.170;4.442;2022-12-18T03:07:33;-3.60;99.90
25923;DHT22;13725;51.170;4.442;2022-12-18T03:10:00;-3.50;99.90
25923;DHT22;13725;51.170;4.442;2022-12-18T03:12:36;-3.50;99.90
25923;DHT22;13725;51.170;4.442;2022-12-18T03:15:13;-3.50;99.90
25923;DHT22;13725;51.170;4.442;2022-12-18T03:17:46;-3.40;99.90
25923;DHT22;13725;51.170;4.442;2022-12-18T03:20:18;-3.40;99.90
25923;DHT22;13725;51.170;4.442;2022-12-18T03:22:46;-3.50;99.90
25923;DHT22;13725;51.170;4.442;2022-12-18T03:25:16;-3.50;99.90
25923;DHT22;13725;51.170;4.442;2022-12-18T03:27:51;-3.50;99.90
25923;DHT22;13725;51.170;4.442;2022-12-18T03:30:19;-3.50;99.90
25923;DHT22;13725;51.170;4.442;2022-12-18T03:33:04;-3.50;99.90
25923;DHT22;13725;51.170;4.442;2022-12-18T03:35:35;-3.50;99.90
25923;DHT22;13725;51.170;4.442;2022-12-18T03:38:01;-3.50;99.90
25923;DHT22;13725;51.170;4.442;2022-12-18T03:48:52;-3.40;99.90
25923;DHT22;13725;51.170;4.442;2022-12-18T03:51:54;-3.40;99.90
25923;DHT22;13725;51.170;4.442;2022-12-18T03:54:24;-3.40;99.90
25923;DHT22;13725;51.170;4.442;2022-12-18T03:57:07;-3.50;99.90
25923;DHT22;13725;51.170;4.442;2022-12-18T03:59:36;-3.50;99.90
25923;DHT22;13725;51.170;4.442;2022-12-18T04:02:04;-3.60;99.90
25923;DHT22;13725;51.170;4.442;2022-12-18T04:04:32;-3.60;99.90
25923;DHT22;13725;51.170;4.442;2022-12-18T04:07:02;-3.60;99.90
25923;DHT22;13725;51.170;4.442;2022-12-18T04:09:30;-3.60;99.90
25923;DHT22;13725;51.170;4.442;2022-12-18T04:11:57;-3.50;99.90
25923;DHT22;13725;51.170;4.442;2022-12-18T04:14:23;-3.50;99.90
25923;DHT22;13725;51.170;4.442;2022-12-18T04:16:52;-3.60;99.90
25923;DHT22;13725;51.170;4.442;2022-12-18T04:19:23;-3.60;99.90
25923;DHT22;13725;51.170;4.442;2022-12-18T04:21:50;-3.70;99.90
25923;DHT22;13725;51.170;4.442;2022-12-18T04:24:16;-3.70;99.90
25923;DHT22;13725;51.170;4.442;2022-12-18T04:26:51;-3.60;99.90
25923;DHT22;13725;51.170;4.442;2022-12-18T04:29:22;-3.60;99.90
25923;DHT22;13725;51.170;4.442;2022-12-18T04:31:48;-3.60;99.90
25923;DHT22;13725;51.170;4.442;2022-12-18T04:34:15;-3.50;99.90
25923;DHT22;13725;51.170;4.442;2022-12-18T04:36:48;-3.50;99.90
25923;DHT22;13725;51.170;4.442;2022-12-18T04:39:23;-3.50;99.90
25923;DHT22;13725;51.170;4.442;2022-12-18T04:41:51;-3.60;99.90
25923;DHT22;13725;51.170;4.442;2022-12-18T04:44:17;-3.50;99.90
25923;DHT22;13725;51.170;4.442;2022-12-18T04:46:42;-3.60;99.90
25923;DHT22;13725;51.170;4.442;2022-12-18T04:49:08;-3.60;99.90
25923;DHT22;13725;51.170;4.442;2022-12-18T04:51:36;-3.60;99.90
25923;DHT22;13725;51.170;4.442;2022-12-18T04:54:01;-3.60;99.90
25923;DHT22;13725;51.170;4.442;2022-12-18T04:56:27;-3.60;99.90
25923;DHT22;13725;51.170;4.442;2022-12-18T04:58:53;-3.60;99.90
25923;DHT22;13725;51.170;4.442;2022-12-18T05:01:19;-3.60;99.90
25923;DHT22;13725;51.170;4.442;2022-12-18T05:03:45;-3.50;99.90
25923;DHT22;13725;51.170;4.442;2022-12-18T05:06:10;-3.50;99.90
25923;DHT22;13725;51.170;4.442;2022-12-18T05:08:36;-3.50;99.90
25923;DHT22;13725;51.170;4.442;2022-12-18T05:11:08;-3.50;99.90
25923;DHT22;13725;51.170;4.442;2022-12-18T05:13:34;-3.40;99.90
25923;DHT22;13725;51.170;4.442;2022-12-18T05:16:00;-3.40;99.90
25923;DHT22;13725;51.170;4.442;2022-12-18T05:18:27;-3.40;99.90
25923;DHT22;13725;51.170;4.442;2022-12-18T05:20:53;-3.40;99.90
25923;DHT22;13725;51.170;4.442;2022-12-18T05:23:21;-3.50;99.90
25923;DHT22;13725;51.170;4.442;2022-12-18T05:25:51;-3.60;99.90
25923;DHT22;13725;51.170;4.442;2022-12-18T05:28:19;-3.60;99.90
25923;DHT22;13725;51.170;4.442;2022-12-18T05:30:52;-3.60;99.90
25923;DHT22;13725;51.170;4.442;2022-12-18T05:33:19;-3.60;99.90
25923;DHT22;13725;51.170;4.442;2022-12-18T05:35:50;-3.60;99.90
25923;DHT22;13725;51.170;4.442;2022-12-18T05:38:18;-3.60;99.90
25923;DHT22;13725;51.170;4.442;2022-12-18T05:40:43;-3.60;99.90
25923;DHT22;13725;51.170;4.442;2022-12-18T05:43:10;-3.50;99.90
25923;DHT22;13725;51.170;4.442;2022-12-18T05:45:39;-3.60;99.90
25923;DHT22;13725;51.170;4.442;2022-12-18T05:48:06;-3.60;99.90
25923;DHT22;13725;51.170;4.442;2022-12-18T05:50:43;-3.70;99.90
25923;DHT22;13725;51.170;4.442;2022-12-18T05:53:11;-3.60;99.90
25923;DHT22;13725;51.170;4.442;2022-12-18T05:55:38;-3.60;99.90
25923;DHT22;13725;51.170;4.442;2022-12-18T05:58:06;-3.50;99.90
25923;DHT22;13725;51.170;4.442;2022-12-18T06:00:33;-3.60;99.90
25923;DHT22;13725;51.170;4.442;2022-12-18T06:03:00;-3.70;99.90
25923;DHT22;13725;51.170;4.442;2022-12-18T06:05:26;-3.70;99.90
25923;DHT22;13725;51.170;4.442;2022-12-18T06:07:52;-3.70;99.90
25923;DHT22;13725;51.170;4.442;2022-12-18T06:10:18;-3.70;99.90
25923;DHT22;13725;51.170;4.442;2022-12-18T06:12:44;-3.70;99.90
25923;DHT22;13725;51.170;4.442;2022-12-18T06:15:10;-3.70;99.90
25923;DHT22;13725;51.170;4.442;2022-12-18T06:17:36;-3.70;99.90
25923;DHT22;13725;51.170;4.442;2022-12-18T06:20:02;-3.80;99.90
25923;DHT22;13725;51.170;4.442;2022-12-18T06:22:30;-3.90;99.90
25923;DHT22;13725;51.170;4.442;2022-12-18T06:24:56;-3.90;99.90
25923;DHT22;13725;51.170;4.442;2022-12-18T06:27:22;-3.90;99.90
25923;DHT22;13725;51.170;4.442;2022-12-18T06:29:48;-3.90;99.90
25923;DHT22;13725;51.170;4.442;2022-12-18T06:32:14;-3.80;99.90
25923;DHT22;13725;51.170;4.442;2022-12-18T06:34:40;-3.80;99.90
25923;DHT22;13725;51.170;4.442;2022-12-18T06:37:06;-3.90;99.90
25923;DHT22;13725;51.170;4.442;2022-12-18T06:39:31;-3.80;99.90
25923;DHT22;13725;51.170;4.442;2022-12-18T06:41:57;-3.80;99.90
25923;DHT22;13725;51.170;4.442;2022-12-18T06:44:23;-3.80;99.90
25923;DHT22;13725;51.170;4.442;2022-12-18T06:46:49;-3.80;99.90
25923;DHT22;13725;51.170;4.442;2022-12-18T06:49:14;-3.80;99.90
25923;DHT22;13725;51.170;4.442;2022-12-18T06:51:42;-3.70;99.90
25923;DHT22;13725;51.170;4.442;2022-12-18T06:54:08;-3.70;99.90
25923;DHT22;13725;51.170;4.442;2022-12-18T06:56:34;-3.60;99.90
25923;DHT22;13725;51.170;4.442;2022-12-18T06:59:00;-3.60;99.90
25923;DHT22;13725;51.170;4.442;2022-12-18T07:01:26;-3.60;99.90
25923;DHT22;13725;51.170;4.442;2022-12-18T07:03:54;-3.70;99.90
25923;DHT22;13725;51.170;4.442;2022-12-18T07:06:21;-3.70;99.90
25923;DHT22;13725;51.170;4.442;2022-12-18T07:08:48;-3.70;99.90
25923;DHT22;13725;51.170;4.442;2022-12-18T07:11:14;-3.70;99.90
25923;DHT22;13725;51.170;4.442;2022-12-18T07:13:40;-3.80;99.90
25923;DHT22;13725;51.170;4.442;2022-12-18T07:16:11;-3.90;99.90
25923;DHT22;13725;51.170;4.442;2022-12-18T07:18:38;-3.90;99.90
25923;DHT22;13725;51.170;4.442;2022-12-18T07:21:05;-3.90;99.90
25923;DHT22;13725;51.170;4.442;2022-12-18T07:23:32;-3.80;99.90
25923;DHT22;13725;51.170;4.442;2022-12-18T07:26:08;-4.00;99.90
25923;DHT22;13725;51.170;4.442;2022-12-18T07:28:36;-4.00;99.90
25923;DHT22;13725;51.170;4.442;2022-12-18T07:31:06;-4.00;99.90
25923;DHT22;13725;51.170;4.442;2022-12-18T07:33:33;-4.00;99.90
25923;DHT22;13725;51.170;4.442;2022-12-18T07:36:00;-4.10;99.90
25923;DHT22;13725;51.170;4.442;2022-12-18T07:38:27;-4.10;99.90
25923;DHT22;13725;51.170;4.442;2022-12-18T07:40:52;-4.10;99.90
25923;DHT22;13725;51.170;4.442;2022-12-18T07:43:18;-4.20;99.90
25923;DHT22;13725;51.170;4.442;2022-12-18T07:45:44;-4.20;99.90
25923;DHT22;13725;51.170;4.442;2022-12-18T07:48:10;-4.20;99.90
25923;DHT22;13725;51.170;4.442;2022-12-18T07:50:36;-4.30;99.90
25923;DHT22;13725;51.170;4.442;2022-12-18T07:53:02;-4.30;99.90
25923;DHT22;13725;51.170;4.442;2022-12-18T07:55:31;-4.30;99.90
25923;DHT22;13725;51.170;4.442;2022-12-18T07:57:56;-4.30;99.90
25923;DHT22;13725;51.170;4.442;2022-12-18T08:00:22;-4.30;99.90
25923;DHT22;13725;51.170;4.442;2022-12-18T08:02:48;-4.30;99.90
25923;DHT22;13725;51.170;4.442;2022-12-18T08:05:13;-4.20;99.90
25923;DHT22;13725;51.170;4.442;2022-12-18T08:07:39;-4.10;99.90
25923;DHT22;13725;51.170;4.442;2022-12-18T08:10:06;-4.00;99.90
25923;DHT22;13725;51.170;4.442;2022-12-18T08:12:32;-3.80;99.90
25923;DHT22;13725;51.170;4.442;2022-12-18T08:14:58;-3.70;99.90
25923;DHT22;13725;51.170;4.442;2022-12-18T08:17:23;-3.50;99.90
25923;DHT22;13725;51.170;4.442;2022-12-18T08:19:49;-3.20;99.90
25923;DHT22;13725;51.170;4.442;2022-12-18T08:22:15;-2.80;99.90
25923;DHT22;13725;51.170;4.442;2022-12-18T08:24:41;-2.40;99.90
25923;DHT22;13725;51.170;4.442;2022-12-18T08:27:06;-2.10;99.90
25923;DHT22;13725;51.170;4.442;2022-12-18T08:29:32;-2.00;99.90
25923;DHT22;13725;51.170;4.442;2022-12-18T08:31:59;-1.70;99.90
25923;DHT22;13725;51.170;4.442;2022-12-18T08:34:25;-1.60;99.90
25923;DHT22;13725;51.170;4.442;2022-12-18T08:36:50;-1.60;99.90
25923;DHT22;13725;51.170;4.442;2022-12-18T08:39:16;-1.60;99.90
25923;DHT22;13725;51.170;4.442;2022-12-18T08:41:42;-1.60;99.90
25923;DHT22;13725;51.170;4.442;2022-12-18T08:44:08;-1.70;99.90
25923;DHT22;13725;51.170;4.442;2022-12-18T08:46:53;-1.20;99.90
25923;DHT22;13725;51.170;4.442;2022-12-18T08:49:19;-1.20;99.90
25923;DHT22;13725;51.170;4.442;2022-12-18T08:51:44;-1.30;99.90
25923;DHT22;13725;51.170;4.442;2022-12-18T08:54:13;-1.40;99.90
25923;DHT22;13725;51.170;4.442;2022-12-18T08:56:39;-1.40;99.90
25923;DHT22;13725;51.170;4.442;2022-12-18T08:59:05;-1.40;99.90
25923;DHT22;13725;51.170;4.442;2022-12-18T09:01:31;-1.30;99.90
25923;DHT22;13725;51.170;4.442;2022-12-18T09:03:56;-1.00;99.90
25923;DHT22;13725;51.170;4.442;2022-12-18T09:06:23;-0.80;99.90
25923;DHT22;13725;51.170;4.442;2022-12-18T09:08:49;-0.50;99.90
25923;DHT22;13725;51.170;4.442;2022-12-18T09:11:25;-0.70;99.90
25923;DHT22;13725;51.170;4.442;2022-12-18T09:13:52;-0.80;99.90
25923;DHT22;13725;51.170;4.442;2022-12-18T09:16:19;-0.70;99.90
25923;DHT22;13725;51.170;4.442;2022-12-18T09:18:46;-0.70;99.90
25923;DHT22;13725;51.170;4.442;2022-12-18T09:21:14;-0.80;99.90
25923;DHT22;13725;51.170;4.442;2022-12-18T09:23:40;-0.80;99.90
25923;DHT22;13725;51.170;4.442;2022-12-18T09:26:06;-0.70;99.90
25923;DHT22;13725;51.170;4.442;2022-12-18T09:28:32;-0.80;99.90
25923;DHT22;13725;51.170;4.442;2022-12-18T09:30:58;-0.90;99.90
25923;DHT22;13725;51.170;4.442;2022-12-18T09:33:24;-1.00;99.90
25923;DHT22;13725;51.170;4.442;2022-12-18T09:35:50;-1.20;99.90
25923;DHT22;13725;51.170;4.442;2022-12-18T09:38:17;-1.20;99.90
25923;DHT22;13725;51.170;4.442;2022-12-18T09:40:56;-1.20;99.90
25923;DHT22;13725;51.170;4.442;2022-12-18T09:43:30;-1.10;99.90
25923;DHT22;13725;51.170;4.442;2022-12-18T09:46:03;-1.10;99.90
25923;DHT22;13725;51.170;4.442;2022-12-18T09:48:42;-1.20;99.90
25923;DHT22;13725;51.170;4.442;2022-12-18T09:51:16;-1.20;99.90
25923;DHT22;13725;51.170;4.442;2022-12-18T09:53:50;-1.10;99.90
25923;DHT22;13725;51.170;4.442;2022-12-18T09:56:19;-0.90;99.90
25923;DHT22;13725;51.170;4.442;2022-12-18T09:58:53;-0.90;99.90
25923;DHT22;13725;51.170;4.442;2022-12-18T10:01:26;-1.00;99.90
25923;DHT22;13725;51.170;4.442;2022-12-18T10:03:53;-0.90;99.90
25923;DHT22;13725;51.170;4.442;2022-12-18T10:06:38;-0.80;99.90
25923;DHT22;13725;51.170;4.442;2022-12-18T10:11:58;-0.30;99.90
25923;DHT22;13725;51.170;4.442;2022-12-18T10:14:57;-0.40;99.90
25923;DHT22;13725;51.170;4.442;2022-12-18T10:20:15;-0.60;99.90
25923;DHT22;13725;51.170;4.442;2022-12-18T10:25:30;-0.70;99.90
25923;DHT22;13725;51.170;4.442;2022-12-18T10:28:07;-0.80;99.90
25923;DHT22;13725;51.170;4.442;2022-12-18T10:30:35;-1.00;99.90
25923;DHT22;13725;51.170;4.442;2022-12-18T10:33:02;-1.10;99.90
25923;DHT22;13725;51.170;4.442;2022-12-18T10:35:28;-1.20;99.90
25923;DHT22;13725;51.170;4.442;2022-12-18T10:43:33;-0.90;99.90
25923;DHT22;13725;51.170;4.442;2022-12-18T10:48:37;-1.10;99.90
25923;DHT22;13725;51.170;4.442;2022-12-18T10:51:06;-1.00;99.90
25923;DHT22;13725;51.170;4.442;2022-12-18T10:53:34;-0.80;99.90
25923;DHT22;13725;51.170;4.442;2022-12-18T10:56:02;-0.70;99.90
25923;DHT22;13725;51.170;4.442;2022-12-18T10:58:31;-0.60;99.90
25923;DHT22;13725;51.170;4.442;2022-12-18T11:01:13;-0.50;99.90
25923;DHT22;13725;51.170;4.442;2022-12-18T11:06:23;-0.40;99.90
25923;DHT22;13725;51.170;4.442;2022-12-18T11:11:31;-0.50;99.90
25923;DHT22;13725;51.170;4.442;2022-12-18T11:14:02;-0.50;99.90
25923;DHT22;13725;51.170;4.442;2022-12-18T11:16:30;-0.40;99.90
25923;DHT22;13725;51.170;4.442;2022-12-18T11:19:13;-0.30;99.90
25923;DHT22;13725;51.170;4.442;2022-12-18T11:21:41;-0.50;99.90
25923;DHT22;13725;51.170;4.442;2022-12-18T11:24:19;-0.50;99.90
25923;DHT22;13725;51.170;4.442;2022-12-18T11:26:46;-0.60;99.90
25923;DHT22;13725;51.170;4.442;2022-12-18T11:29:17;-0.60;99.90
25923;DHT22;13725;51.170;4.442;2022-12-18T11:31:43;-0.40;99.90
25923;DHT22;13725;51.170;4.442;2022-12-18T11:34:23;-0.30;99.90
25923;DHT22;13725;51.170;4.442;2022-12-18T11:36:52;-0.10;99.90
25923;DHT22;13725;51.170;4.442;2022-12-18T11:42:01;-0.10;99.90
25923;DHT22;13725;51.170;4.442;2022-12-18T11:44:53;-0.10;99.90
25923;DHT22;13725;51.170;4.442;2022-12-18T11:47:29;0.10;99.90
25923;DHT22;13725;51.170;4.442;2022-12-18T11:50:00;0.00;99.90
25923;DHT22;13725;51.170;4.442;2022-12-18T11:52:40;-0.20;99.90
25923;DHT22;13725;51.170;4.442;2022-12-18T11:55:21;-0.20;99.90
25923;DHT22;13725;51.170;4.442;2022-12-18T11:58:04;-0.10;99.90
25923;DHT22;13725;51.170;4.442;2022-12-18T12:00:38;0.10;99.90
25923;DHT22;13725;51.170;4.442;2022-12-18T12:09:13;0.10;99.90
25923;DHT22;13725;51.170;4.442;2022-12-18T12:11:16;0.20;99.90
25923;DHT22;13725;51.170;4.442;2022-12-18T12:22:00;0.10;99.90
25923;DHT22;13725;51.170;4.442;2022-12-18T12:27:24;0.30;99.90
25923;DHT22;13725;51.170;4.442;2022-12-18T12:30:20;0.30;99.90
25923;DHT22;13725;51.170;4.442;2022-12-18T12:33:10;0.20;99.90
25923;DHT22;13725;51.170;4.442;2022-12-18T12:38:16;0.30;99.90
25923;DHT22;13725;51.170;4.442;2022-12-18T12:40:53;0.40;99.90
25923;DHT22;13725;51.170;4.442;2022-12-18T12:43:46;0.50;99.90
25923;DHT22;13725;51.170;4.442;2022-12-18T12:46:15;0.30;99.90
25923;DHT22;13725;51.170;4.442;2022-12-18T12:48:55;0.40;99.90
25923;DHT22;13725;51.170;4.442;2022-12-18T12:51:28;0.30;99.90
25923;DHT22;13725;51.170;4.442;2022-12-18T12:53:57;0.50;99.90
25923;DHT22;13725;51.170;4.442;2022-12-18T12:56:39;0.60;99.90
25923;DHT22;13725;51.170;4.442;2022-12-18T12:59:30;0.60;99.90
25923;DHT22;13725;51.170;4.442;2022-12-18T13:08:00;0.40;99.90
25923;DHT22;13725;51.170;4.442;2022-12-18T13:10:34;0.20;99.90
25923;DHT22;13725;51.170;4.442;2022-12-18T13:13:10;0.10;99.90
25923;DHT22;13725;51.170;4.442;2022-12-18T13:18:24;0.40;99.90
25923;DHT22;13725;51.170;4.442;2022-12-18T13:30:54;0.80;99.90
25923;DHT22;13725;51.170;4.442;2022-12-18T13:36:13;0.80;99.90
25923;DHT22;13725;51.170;4.442;2022-12-18T13:38:41;0.70;99.90
25923;DHT22;13725;51.170;4.442;2022-12-18T13:43:39;0.70;99.90
25923;DHT22;13725;51.170;4.442;2022-12-18T13:49:02;0.70;99.90
25923;DHT22;13725;51.170;4.442;2022-12-18T13:51:32;0.70;99.90
25923;DHT22;13725;51.170;4.442;2022-12-18T13:54:00;0.80;99.90
25923;DHT22;13725;51.170;4.442;2022-12-18T13:56:31;0.60;99.90
25923;DHT22;13725;51.170;4.442;2022-12-18T14:06:52;0.80;99.90
25923;DHT22;13725;51.170;4.442;2022-12-18T14:09:25;0.80;99.90
25923;DHT22;13725;51.170;4.442;2022-12-18T14:11:51;0.80;99.90
25923;DHT22;13725;51.170;4.442;2022-12-18T14:14:44;0.90;99.90
25923;DHT22;13725;51.170;4.442;2022-12-18T14:17:11;0.90;99.90
25923;DHT22;13725;51.170;4.442;2022-12-18T14:19:42;0.80;99.90
25923;DHT22;13725;51.170;4.442;2022-12-18T14:22:32;0.70;99.90
25923;DHT22;13725;51.170;4.442;2022-12-18T14:25:18;0.80;99.90
25923;DHT22;13725;51.170;4.442;2022-12-18T14:27:47;0.70;99.90
25923;DHT22;13725;51.170;4.442;2022-12-18T14:30:38;0.60;99.90
25923;DHT22;13725;51.170;4.442;2022-12-18T14:35:30;0.80;99.90
25923;DHT22;13725;51.170;4.442;2022-12-18T14:38:24;0.80;99.90
25923;DHT22;13725;51.170;4.442;2022-12-18T14:40:54;0.70;99.90
25923;DHT22;13725;51.170;4.442;2022-12-18T14:43:21;0.60;99.90
25923;DHT22;13725;51.170;4.442;2022-12-18T14:45:47;0.50;99.90
25923;DHT22;13725;51.170;4.442;2022-12-18T14:51:00;0.50;99.90
25923;DHT22;13725;51.170;4.442;2022-12-18T14:53:38;0.50;99.90
25923;DHT22;13725;51.170;4.442;2022-12-18T14:56:33;0.50;99.90
25923;DHT22;13725;51.170;4.442;2022-12-18T14:59:01;0.60;99.90
25923;DHT22;13725;51.170;4.442;2022-12-18T15:03:54;0.70;99.90
25923;DHT22;13725;51.170;4.442;2022-12-18T15:09:02;0.60;99.90
25923;DHT22;13725;51.170;4.442;2022-12-18T15:11:33;0.50;99.90
25923;DHT22;13725;51.170;4.442;2022-12-18T15:16:55;0.40;99.90
25923;DHT22;13725;51.170;4.442;2022-12-18T15:19:23;0.50;99.90
25923;DHT22;13725;51.170;4.442;2022-12-18T15:21:51;0.50;99.90
25923;DHT22;13725;51.170;4.442;2022-12-18T15:24:19;0.60;99.90
25923;DHT22;13725;51.170;4.442;2022-12-18T15:26:47;0.50;99.90
25923;DHT22;13725;51.170;4.442;2022-12-18T15:29:21;0.50;99.90
25923;DHT22;13725;51.170;4.442;2022-12-18T15:32:04;0.50;99.90
25923;DHT22;13725;51.170;4.442;2022-12-18T15:34:31;0.50;99.90
25923;DHT22;13725;51.170;4.442;2022-12-18T15:36:57;0.50;99.90
25923;DHT22;13725;51.170;4.442;2022-12-18T15:39:23;0.60;99.90
25923;DHT22;13725;51.170;4.442;2022-12-18T15:41:49;0.70;99.90
25923;DHT22;13725;51.170;4.442;2022-12-18T15:44:33;0.80;99.90
25923;DHT22;13725;51.170;4.442;2022-12-18T15:46:59;0.90;99.90
25923;DHT22;13725;51.170;4.442;2022-12-18T15:49:25;0.90;99.90
25923;DHT22;13725;51.170;4.442;2022-12-18T15:51:56;1.00;99.90
25923;DHT22;13725;51.170;4.442;2022-12-18T15:54:23;1.00;99.90
25923;DHT22;13725;51.170;4.442;2022-12-18T15:57:12;1.00;99.90
25923;DHT22;13725;51.170;4.442;2022-12-18T15:59:56;0.90;99.90
25923;DHT22;13725;51.170;4.442;2022-12-18T16:02:23;1.00;99.90
25923;DHT22;13725;51.170;4.442;2022-12-18T16:04:50;0.90;99.90
25923;DHT22;13725;51.170;4.442;2022-12-18T16:07:16;0.90;99.90
25923;DHT22;13725;51.170;4.442;2022-12-18T16:09:42;0.80;99.90
25923;DHT22;13725;51.170;4.442;2022-12-18T16:12:26;0.90;99.90
25923;DHT22;13725;51.170;4.442;2022-12-18T16:14:53;0.90;99.90
25923;DHT22;13725;51.170;4.442;2022-12-18T16:17:19;0.90;99.90
25923;DHT22;13725;51.170;4.442;2022-12-18T16:19:44;0.90;99.90
25923;DHT22;13725;51.170;4.442;2022-12-18T16:22:25;1.00;99.90
25923;DHT22;13725;51.170;4.442;2022-12-18T16:24:53;1.00;99.90
25923;DHT22;13725;51.170;4.442;2022-12-18T16:27:20;0.90;99.90
25923;DHT22;13725;51.170;4.442;2022-12-18T16:29:46;0.90;99.90
25923;DHT22;13725;51.170;4.442;2022-12-18T16:32:16;0.80;99.90
25923;DHT22;13725;51.170;4.442;2022-12-18T16:34:42;0.80;99.90
25923;DHT22;13725;51.170;4.442;2022-12-18T16:37:10;0.80;99.90
25923;DHT22;13725;51.170;4.442;2022-12-18T16:39:37;0.80;99.90
25923;DHT22;13725;51.170;4.442;2022-12-18T16:42:13;0.80;99.90
25923;DHT22;13725;51.170;4.442;2022-12-18T16:44:40;0.90;99.90
25923;DHT22;13725;51.170;4.442;2022-12-18T16:47:06;0.90;99.90
25923;DHT22;13725;51.170;4.442;2022-12-18T16:49:32;0.90;99.90
25923;DHT22;13725;51.170;4.442;2022-12-18T16:51:58;0.90;99.90
25923;DHT22;13725;51.170;4.442;2022-12-18T16:54:24;1.00;99.90
25923;DHT22;13725;51.170;4.442;2022-12-18T16:56:50;1.00;99.90
25923;DHT22;13725;51.170;4.442;2022-12-18T16:59:16;1.00;99.90
25923;DHT22;13725;51.170;4.442;2022-12-18T17:01:42;1.00;99.90
25923;DHT22;13725;51.170;4.442;2022-12-18T17:04:08;1.10;99.90
25923;DHT22;13725;51.170;4.442;2022-12-18T17:06:39;1.10;99.90
25923;DHT22;13725;51.170;4.442;2022-12-18T17:09:07;1.10;99.90
25923;DHT22;13725;51.170;4.442;2022-12-18T17:11:34;1.10;99.90
25923;DHT22;13725;51.170;4.442;2022-12-18T17:14:23;1.20;99.90
25923;DHT22;13725;51.170;4.442;2022-12-18T17:16:50;1.20;99.90
25923;DHT22;13725;51.170;4.442;2022-12-18T17:19:16;1.20;99.90
25923;DHT22;13725;51.170;4.442;2022-12-18T17:21:43;1.20;99.90
25923;DHT22;13725;51.170;4.442;2022-12-18T17:24:09;1.30;99.90
25923;DHT22;13725;51.170;4.442;2022-12-18T17:26:35;1.30;99.90
25923;DHT22;13725;51.170;4.442;2022-12-18T17:29:02;1.30;99.90
25923;DHT22;13725;51.170;4.442;2022-12-18T17:31:29;1.30;99.90
25923;DHT22;13725;51.170;4.442;2022-12-18T17:33:56;1.30;99.90
25923;DHT22;13725;51.170;4.442;2022-12-18T17:36:22;1.30;99.90
25923;DHT22;13725;51.170;4.442;2022-12-18T17:38:57;1.30;99.90
25923;DHT22;13725;51.170;4.442;2022-12-18T17:41:24;1.30;99.90
25923;DHT22;13725;51.170;4.442;2022-12-18T17:43:58;1.20;99.90
25923;DHT22;13725;51.170;4.442;2022-12-18T17:46:25;1.10;99.90
25923;DHT22;13725;51.170;4.442;2022-12-18T17:48:54;1.20;99.90
25923;DHT22;13725;51.170;4.442;2022-12-18T17:51:21;1.10;99.90
25923;DHT22;13725;51.170;4.442;2022-12-18T17:53:47;1.10;99.90
25923;DHT22;13725;51.170;4.442;2022-12-18T17:56:15;0.90;99.90